sensor_id;sensor_type;location;lat;lon;timestamp;P1;durP1;ratioP1;P2;durP2;ratioP2
74196;SDS011;62555;52.678;4.900;2023-02-28T00:00:32;1.02;;;0.82;;
74196;SDS011;62555;52.678;4.900;2023-02-28T00:02:58;1.25;;;0.77;;
74196;SDS011;62555;52.678;4.900;2023-02-28T00:05:24;1.25;;;0.90;;
74196;SDS011;62555;52.678;4.900;2023-02-28T00:07:51;2.00;;;0.98;;
74196;SDS011;62555;52.678;4.900;2023-02-28T00:10:20;2.92;;;0.90;;
74196;SDS011;62555;52.678;4.900;2023-02-28T00:12:48;1.05;;;0.75;;
74196;SDS011;62555;52.678;4.900;2023-02-28T00:15:14;0.60;;;0.50;;
74196;SDS011;62555;52.678;4.900;2023-02-28T00:17:39;1.35;;;0.77;;
74196;SDS011;62555;52.678;4.900;2023-02-28T00:20:05;1.52;;;0.90;;
74196;SDS011;62555;52.678;4.900;2023-02-28T00:22:33;1.02;;;0.70;;
74196;SDS011;62555;52.678;4.900;2023-02-28T00:24:59;1.38;;;0.82;;
74196;SDS011;62555;52.678;4.900;2023-02-28T00:27:24;2.60;;;0.95;;
74196;SDS011;62555;52.678;4.900;2023-02-28T00:29:49;2.13;;;0.85;;
74196;SDS011;62555;52.678;4.900;2023-02-28T00:32:15;1.20;;;0.88;;
74196;SDS011;62555;52.678;4.900;2023-02-28T00:34:40;1.45;;;0.70;;
74196;SDS011;62555;52.678;4.900;2023-02-28T00:37:06;1.63;;;0.80;;
74196;SDS011;62555;52.678;4.900;2023-02-28T00:39:33;0.73;;;0.65;;
74196;SDS011;62555;52.678;4.900;2023-02-28T00:41:59;1.52;;;0.95;;
74196;SDS011;62555;52.678;4.900;2023-02-28T00:44:25;1.83;;;0.90;;
74196;SDS011;62555;52.678;4.900;2023-02-28T00:46:50;1.75;;;0.95;;
74196;SDS011;62555;52.678;4.900;2023-02-28T00:49:16;1.48;;;0.80;;
74196;SDS011;62555;52.678;4.900;2023-02-28T00:51:42;1.48;;;0.80;;
74196;SDS011;62555;52.678;4.900;2023-02-28T00:54:07;1.95;;;0.73;;
74196;SDS011;62555;52.678;4.900;2023-02-28T00:56:33;1.35;;;0.77;;
74196;SDS011;62555;52.678;4.900;2023-02-28T00:58:58;1.02;;;0.95;;
74196;SDS011;62555;52.678;4.900;2023-02-28T01:01:23;1.85;;;0.70;;
74196;SDS011;62555;52.678;4.900;2023-02-28T01:03:49;2.47;;;0.75;;
74196;SDS011;62555;52.678;4.900;2023-02-28T01:06:14;1.80;;;0.80;;
74196;SDS011;62555;52.678;4.900;2023-02-28T01:08:39;0.85;;;0.57;;
74196;SDS011;62555;52.678;4.900;2023-02-28T01:11:12;1.20;;;0.65;;
74196;SDS011;62555;52.678;4.900;2023-02-28T01:16:04;1.57;;;0.73;;
74196;SDS011;62555;52.678;4.900;2023-02-28T01:18:30;1.95;;;0.70;;
74196;SDS011;62555;52.678;4.900;2023-02-28T01:20:56;1.67;;;0.80;;
74196;SDS011;62555;52.678;4.900;2023-02-28T01:23:21;1.75;;;1.02;;
74196;SDS011;62555;52.678;4.900;2023-02-28T01:25:48;1.63;;;0.80;;
74196;SDS011;62555;52.678;4.900;2023-02-28T01:28:14;0.60;;;0.60;;
74196;SDS011;62555;52.678;4.900;2023-02-28T01:30:40;1.15;;;0.63;;
74196;SDS011;62555;52.678;4.900;2023-02-28T01:33:05;1.45;;;0.75;;
74196;SDS011;62555;52.678;4.900;2023-02-28T01:35:34;1.13;;;0.65;;
74196;SDS011;62555;52.678;4.900;2023-02-28T01:38:00;1.17;;;0.90;;
74196;SDS011;62555;52.678;4.900;2023-02-28T01:40:26;1.25;;;0.90;;
74196;SDS011;62555;52.678;4.900;2023-02-28T01:42:51;2.28;;;0.90;;
74196;SDS011;62555;52.678;4.900;2023-02-28T01:45:29;1.95;;;0.65;;
74196;SDS011;62555;52.678;4.900;2023-02-28T01:47:58;1.05;;;0.77;;
74196;SDS011;62555;52.678;4.900;2023-02-28T01:50:27;0.65;;;0.60;;
74196;SDS011;62555;52.678;4.900;2023-02-28T01:52:54;2.30;;;0.60;;
74196;SDS011;62555;52.678;4.900;2023-02-28T01:55:21;1.63;;;0.70;;
74196;SDS011;62555;52.678;4.900;2023-02-28T01:57:49;1.20;;;0.75;;
74196;SDS011;62555;52.678;4.900;2023-02-28T02:00:17;1.17;;;1.02;;
74196;SDS011;62555;52.678;4.900;2023-02-28T02:02:45;1.02;;;0.55;;
74196;SDS011;62555;52.678;4.900;2023-02-28T02:05:16;0.70;;;0.68;;
74196;SDS011;62555;52.678;4.900;2023-02-28T02:07:46;1.63;;;0.57;;
74196;SDS011;62555;52.678;4.900;2023-02-28T02:10:17;1.70;;;0.70;;
74196;SDS011;62555;52.678;4.900;2023-02-28T02:18:02;1.20;;;0.63;;
74196;SDS011;62555;52.678;4.900;2023-02-28T02:20:44;1.33;;;0.70;;
74196;SDS011;62555;52.678;4.900;2023-02-28T02:26:11;1.13;;;0.50;;
74196;SDS011;62555;52.678;4.900;2023-02-28T02:31:55;1.17;;;0.57;;
74196;SDS011;62555;52.678;4.900;2023-02-28T02:34:48;1.02;;;0.50;;
74196;SDS011;62555;52.678;4.900;2023-02-28T02:39:56;1.17;;;0.88;;
74196;SDS011;62555;52.678;4.900;2023-02-28T02:42:52;1.52;;;0.60;;
74196;SDS011;62555;52.678;4.900;2023-02-28T02:45:44;0.80;;;0.60;;
74196;SDS011;62555;52.678;4.900;2023-02-28T02:48:12;1.52;;;0.70;;
74196;SDS011;62555;52.678;4.900;2023-02-28T02:50:41;2.20;;;1.20;;
74196;SDS011;62555;52.678;4.900;2023-02-28T02:53:09;1.42;;;0.77;;
74196;SDS011;62555;52.678;4.900;2023-02-28T02:55:37;1.10;;;0.50;;
74196;SDS011;62555;52.678;4.900;2023-02-28T02:58:05;0.70;;;0.70;;
74196;SDS011;62555;52.678;4.900;2023-02-28T03:00:36;2.63;;;0.80;;
74196;SDS011;62555;52.678;4.900;2023-02-28T03:03:03;1.38;;;0.50;;
74196;SDS011;62555;52.678;4.900;2023-02-28T03:05:31;0.90;;;0.60;;
74196;SDS011;62555;52.678;4.900;2023-02-28T03:07:59;1.25;;;0.40;;
74196;SDS011;62555;52.678;4.900;2023-02-28T03:12:54;1.50;;;0.60;;
74196;SDS011;62555;52.678;4.900;2023-02-28T03:15:45;1.27;;;0.60;;
74196;SDS011;62555;52.678;4.900;2023-02-28T03:18:19;1.08;;;0.52;;
74196;SDS011;62555;52.678;4.900;2023-02-28T03:23:44;1.20;;;0.50;;
74196;SDS011;62555;52.678;4.900;2023-02-28T03:26:16;1.98;;;0.70;;
74196;SDS011;62555;52.678;4.900;2023-02-28T03:29:04;1.15;;;0.70;;
74196;SDS011;62555;52.678;4.900;2023-02-28T03:31:44;1.27;;;0.70;;
74196;SDS011;62555;52.678;4.900;2023-02-28T03:34:13;1.40;;;0.70;;
74196;SDS011;62555;52.678;4.900;2023-02-28T03:36:51;0.75;;;0.47;;
74196;SDS011;62555;52.678;4.900;2023-02-28T03:42:15;0.90;;;0.82;;
74196;SDS011;62555;52.678;4.900;2023-02-28T03:44:45;1.27;;;0.57;;
74196;SDS011;62555;52.678;4.900;2023-02-28T03:47:21;1.13;;;0.60;;
74196;SDS011;62555;52.678;4.900;2023-02-28T03:49:50;0.68;;;0.50;;
74196;SDS011;62555;52.678;4.900;2023-02-28T03:52:18;1.42;;;0.60;;
74196;SDS011;62555;52.678;4.900;2023-02-28T03:54:47;1.10;;;0.73;;
74196;SDS011;62555;52.678;4.900;2023-02-28T03:57:18;1.55;;;0.55;;
74196;SDS011;62555;52.678;4.900;2023-02-28T03:59:48;1.30;;;0.47;;
74196;SDS011;62555;52.678;4.900;2023-02-28T04:02:19;1.08;;;1.00;;
74196;SDS011;62555;52.678;4.900;2023-02-28T04:04:44;2.90;;;0.68;;
74196;SDS011;62555;52.678;4.900;2023-02-28T04:07:13;0.50;;;0.50;;
74196;SDS011;62555;52.678;4.900;2023-02-28T04:09:38;0.55;;;0.40;;
74196;SDS011;62555;52.678;4.900;2023-02-28T04:12:04;1.40;;;0.60;;
74196;SDS011;62555;52.678;4.900;2023-02-28T04:14:30;0.85;;;0.55;;
74196;SDS011;62555;52.678;4.900;2023-02-28T04:16:55;1.65;;;0.90;;
74196;SDS011;62555;52.678;4.900;2023-02-28T04:19:20;2.38;;;0.73;;
74196;SDS011;62555;52.678;4.900;2023-02-28T04:21:47;1.83;;;0.73;;
74196;SDS011;62555;52.678;4.900;2023-02-28T04:24:15;1.40;;;0.50;;
74196;SDS011;62555;52.678;4.900;2023-02-28T04:29:21;1.98;;;0.50;;
74196;SDS011;62555;52.678;4.900;2023-02-28T04:31:48;1.45;;;0.82;;
74196;SDS011;62555;52.678;4.900;2023-02-28T04:34:13;0.90;;;0.60;;
74196;SDS011;62555;52.678;4.900;2023-02-28T04:36:38;1.00;;;0.50;;
74196;SDS011;62555;52.678;4.900;2023-02-28T04:39:04;1.38;;;0.47;;
74196;SDS011;62555;52.678;4.900;2023-02-28T04:41:29;3.22;;;0.80;;
74196;SDS011;62555;52.678;4.900;2023-02-28T04:43:55;1.88;;;0.70;;
74196;SDS011;62555;52.678;4.900;2023-02-28T04:46:21;0.63;;;0.50;;
74196;SDS011;62555;52.678;4.900;2023-02-28T04:48:47;0.75;;;0.60;;
74196;SDS011;62555;52.678;4.900;2023-02-28T04:51:13;1.10;;;0.50;;
74196;SDS011;62555;52.678;4.900;2023-02-28T04:53:40;2.92;;;0.90;;
74196;SDS011;62555;52.678;4.900;2023-02-28T04:56:06;1.27;;;0.60;;
74196;SDS011;62555;52.678;4.900;2023-02-28T04:58:32;0.88;;;0.43;;
74196;SDS011;62555;52.678;4.900;2023-02-28T05:01:01;1.65;;;0.50;;
74196;SDS011;62555;52.678;4.900;2023-02-28T05:03:28;0.93;;;0.60;;
74196;SDS011;62555;52.678;4.900;2023-02-28T05:05:53;1.35;;;0.70;;
74196;SDS011;62555;52.678;4.900;2023-02-28T05:08:19;0.95;;;0.70;;
74196;SDS011;62555;52.678;4.900;2023-02-28T05:10:44;1.17;;;0.52;;
74196;SDS011;62555;52.678;4.900;2023-02-28T05:13:12;1.52;;;0.63;;
74196;SDS011;62555;52.678;4.900;2023-02-28T05:15:38;1.65;;;0.60;;
74196;SDS011;62555;52.678;4.900;2023-02-28T05:18:03;1.15;;;0.60;;
74196;SDS011;62555;52.678;4.900;2023-02-28T05:20:28;1.25;;;0.52;;
74196;SDS011;62555;52.678;4.900;2023-02-28T05:22:54;0.50;;;0.50;;
74196;SDS011;62555;52.678;4.900;2023-02-28T05:25:20;1.63;;;0.55;;
74196;SDS011;62555;52.678;4.900;2023-02-28T05:27:49;1.70;;;0.60;;
74196;SDS011;62555;52.678;4.900;2023-02-28T05:30:14;2.58;;;0.60;;
74196;SDS011;62555;52.678;4.900;2023-02-28T05:32:40;0.90;;;0.73;;
74196;SDS011;62555;52.678;4.900;2023-02-28T05:35:09;2.35;;;0.50;;
74196;SDS011;62555;52.678;4.900;2023-02-28T05:37:35;1.58;;;0.77;;
74196;SDS011;62555;52.678;4.900;2023-02-28T05:40:01;0.80;;;0.50;;
74196;SDS011;62555;52.678;4.900;2023-02-28T05:42:26;0.70;;;0.40;;
74196;SDS011;62555;52.678;4.900;2023-02-28T05:44:52;1.33;;;0.63;;
74196;SDS011;62555;52.678;4.900;2023-02-28T05:47:17;1.98;;;0.80;;
74196;SDS011;62555;52.678;4.900;2023-02-28T05:49:42;1.50;;;0.60;;
74196;SDS011;62555;52.678;4.900;2023-02-28T05:52:08;0.73;;;0.60;;
74196;SDS011;62555;52.678;4.900;2023-02-28T05:54:33;0.70;;;0.60;;
74196;SDS011;62555;52.678;4.900;2023-02-28T05:56:58;1.33;;;0.40;;
74196;SDS011;62555;52.678;4.900;2023-02-28T05:59:24;0.40;;;0.40;;
74196;SDS011;62555;52.678;4.900;2023-02-28T06:01:49;1.15;;;0.60;;
74196;SDS011;62555;52.678;4.900;2023-02-28T06:04:16;0.80;;;0.50;;
74196;SDS011;62555;52.678;4.900;2023-02-28T06:06:44;0.70;;;0.70;;
74196;SDS011;62555;52.678;4.900;2023-02-28T06:09:10;1.42;;;0.63;;
74196;SDS011;62555;52.678;4.900;2023-02-28T06:11:36;1.45;;;0.60;;
74196;SDS011;62555;52.678;4.900;2023-02-28T06:14:01;1.27;;;0.60;;
74196;SDS011;62555;52.678;4.900;2023-02-28T06:16:27;1.00;;;0.50;;
74196;SDS011;62555;52.678;4.900;2023-02-28T06:18:53;1.17;;;0.55;;
74196;SDS011;62555;52.678;4.900;2023-02-28T06:21:21;1.40;;;0.73;;
74196;SDS011;62555;52.678;4.900;2023-02-28T06:23:46;0.88;;;0.60;;
74196;SDS011;62555;52.678;4.900;2023-02-28T06:26:12;0.50;;;0.50;;
74196;SDS011;62555;52.678;4.900;2023-02-28T06:28:37;1.08;;;0.70;;
74196;SDS011;62555;52.678;4.900;2023-02-28T06:31:14;0.88;;;0.43;;
74196;SDS011;62555;52.678;4.900;2023-02-28T06:33:41;1.73;;;0.70;;
74196;SDS011;62555;52.678;4.900;2023-02-28T06:36:08;1.02;;;0.30;;
74196;SDS011;62555;52.678;4.900;2023-02-28T06:38:35;1.98;;;0.70;;
74196;SDS011;62555;52.678;4.900;2023-02-28T06:41:01;2.13;;;0.43;;
74196;SDS011;62555;52.678;4.900;2023-02-28T06:43:31;0.77;;;0.40;;
74196;SDS011;62555;52.678;4.900;2023-02-28T06:45:59;1.92;;;0.52;;
74196;SDS011;62555;52.678;4.900;2023-02-28T06:48:26;1.25;;;0.68;;
74196;SDS011;62555;52.678;4.900;2023-02-28T06:50:51;0.82;;;0.40;;
74196;SDS011;62555;52.678;4.900;2023-02-28T06:53:17;1.50;;;0.60;;
74196;SDS011;62555;52.678;4.900;2023-02-28T06:55:42;0.70;;;0.60;;
74196;SDS011;62555;52.678;4.900;2023-02-28T06:58:07;1.20;;;0.55;;
74196;SDS011;62555;52.678;4.900;2023-02-28T07:00:42;0.88;;;0.50;;
74196;SDS011;62555;52.678;4.900;2023-02-28T07:03:08;0.55;;;0.50;;
74196;SDS011;62555;52.678;4.900;2023-02-28T07:05:34;0.60;;;0.60;;
74196;SDS011;62555;52.678;4.900;2023-02-28T07:08:04;0.77;;;0.50;;
74196;SDS011;62555;52.678;4.900;2023-02-28T07:10:30;1.10;;;0.50;;
74196;SDS011;62555;52.678;4.900;2023-02-28T07:12:57;0.95;;;0.50;;
74196;SDS011;62555;52.678;4.900;2023-02-28T07:15:23;1.38;;;0.68;;
74196;SDS011;62555;52.678;4.900;2023-02-28T07:17:48;2.20;;;0.75;;
74196;SDS011;62555;52.678;4.900;2023-02-28T07:20:14;1.85;;;0.70;;
74196;SDS011;62555;52.678;4.900;2023-02-28T07:22:39;2.08;;;0.90;;
74196;SDS011;62555;52.678;4.900;2023-02-28T07:25:05;1.63;;;0.80;;
74196;SDS011;62555;52.678;4.900;2023-02-28T07:27:31;1.77;;;0.95;;
74196;SDS011;62555;52.678;4.900;2023-02-28T07:29:56;1.00;;;0.57;;
74196;SDS011;62555;52.678;4.900;2023-02-28T07:32:21;1.25;;;0.80;;
74196;SDS011;62555;52.678;4.900;2023-02-28T07:34:47;1.35;;;0.82;;
74196;SDS011;62555;52.678;4.900;2023-02-28T07:37:13;1.67;;;0.70;;
74196;SDS011;62555;52.678;4.900;2023-02-28T07:39:39;0.90;;;0.60;;
74196;SDS011;62555;52.678;4.900;2023-02-28T07:44:35;2.00;;;0.95;;
74196;SDS011;62555;52.678;4.900;2023-02-28T07:47:05;1.50;;;0.80;;
74196;SDS011;62555;52.678;4.900;2023-02-28T07:49:31;1.90;;;1.02;;
74196;SDS011;62555;52.678;4.900;2023-02-28T07:51:57;2.22;;;0.90;;
74196;SDS011;62555;52.678;4.900;2023-02-28T07:54:22;1.23;;;0.85;;
74196;SDS011;62555;52.678;4.900;2023-02-28T07:56:47;2.17;;;1.00;;
74196;SDS011;62555;52.678;4.900;2023-02-28T07:59:12;2.28;;;0.98;;
74196;SDS011;62555;52.678;4.900;2023-02-28T08:01:38;1.42;;;1.02;;
74196;SDS011;62555;52.678;4.900;2023-02-28T08:04:03;1.50;;;1.30;;
74196;SDS011;62555;52.678;4.900;2023-02-28T08:06:29;2.00;;;1.15;;
74196;SDS011;62555;52.678;4.900;2023-02-28T08:08:54;1.65;;;1.00;;
74196;SDS011;62555;52.678;4.900;2023-02-28T08:11:21;1.08;;;0.80;;
74196;SDS011;62555;52.678;4.900;2023-02-28T08:13:46;2.10;;;1.13;;
74196;SDS011;62555;52.678;4.900;2023-02-28T08:16:12;1.10;;;0.88;;
74196;SDS011;62555;52.678;4.900;2023-02-28T08:18:46;1.20;;;1.00;;
74196;SDS011;62555;52.678;4.900;2023-02-28T08:21:12;2.60;;;1.08;;
74196;SDS011;62555;52.678;4.900;2023-02-28T08:23:37;1.08;;;0.82;;
74196;SDS011;62555;52.678;4.900;2023-02-28T08:26:03;1.25;;;1.02;;
74196;SDS011;62555;52.678;4.900;2023-02-28T08:28:28;1.23;;;0.98;;
74196;SDS011;62555;52.678;4.900;2023-02-28T08:30:54;1.30;;;1.00;;
74196;SDS011;62555;52.678;4.900;2023-02-28T08:33:19;1.52;;;1.42;;
74196;SDS011;62555;52.678;4.900;2023-02-28T08:35:45;4.13;;;1.52;;
74196;SDS011;62555;52.678;4.900;2023-02-28T08:38:10;2.08;;;1.38;;
74196;SDS011;62555;52.678;4.900;2023-02-28T08:40:35;1.73;;;1.08;;
74196;SDS011;62555;52.678;4.900;2023-02-28T08:43:01;1.70;;;1.08;;
74196;SDS011;62555;52.678;4.900;2023-02-28T08:45:26;1.20;;;1.08;;
74196;SDS011;62555;52.678;4.900;2023-02-28T08:47:51;1.40;;;1.25;;
74196;SDS011;62555;52.678;4.900;2023-02-28T08:52:44;2.03;;;1.10;;
74196;SDS011;62555;52.678;4.900;2023-02-28T08:55:10;1.23;;;1.00;;
74196;SDS011;62555;52.678;4.900;2023-02-28T08:57:35;1.05;;;0.80;;
74196;SDS011;62555;52.678;4.900;2023-02-28T09:00:02;1.13;;;1.00;;
74196;SDS011;62555;52.678;4.900;2023-02-28T09:02:29;1.30;;;1.00;;
74196;SDS011;62555;52.678;4.900;2023-02-28T09:04:57;1.08;;;0.98;;
74196;SDS011;62555;52.678;4.900;2023-02-28T09:07:23;1.85;;;1.10;;
74196;SDS011;62555;52.678;4.900;2023-02-28T09:09:49;1.17;;;0.88;;
74196;SDS011;62555;52.678;4.900;2023-02-28T09:12:28;2.33;;;1.05;;
74196;SDS011;62555;52.678;4.900;2023-02-28T09:14:58;1.38;;;1.13;;
74196;SDS011;62555;52.678;4.900;2023-02-28T09:17:23;1.55;;;1.00;;
74196;SDS011;62555;52.678;4.900;2023-02-28T09:19:49;2.00;;;1.00;;
74196;SDS011;62555;52.678;4.900;2023-02-28T09:22:14;0.98;;;0.88;;
74196;SDS011;62555;52.678;4.900;2023-02-28T09:24:40;1.08;;;0.98;;
74196;SDS011;62555;52.678;4.900;2023-02-28T09:27:05;1.13;;;1.02;;
74196;SDS011;62555;52.678;4.900;2023-02-28T09:29:31;1.65;;;1.00;;
74196;SDS011;62555;52.678;4.900;2023-02-28T09:31:58;1.20;;;1.10;;
74196;SDS011;62555;52.678;4.900;2023-02-28T09:34:24;1.05;;;0.93;;
74196;SDS011;62555;52.678;4.900;2023-02-28T09:36:49;1.13;;;0.75;;
74196;SDS011;62555;52.678;4.900;2023-02-28T09:39:19;0.85;;;0.77;;
74196;SDS011;62555;52.678;4.900;2023-02-28T09:41:45;1.05;;;0.80;;
74196;SDS011;62555;52.678;4.900;2023-02-28T09:44:36;1.40;;;1.23;;
74196;SDS011;62555;52.678;4.900;2023-02-28T09:47:12;1.67;;;1.08;;
74196;SDS011;62555;52.678;4.900;2023-02-28T09:49:55;1.38;;;1.25;;
74196;SDS011;62555;52.678;4.900;2023-02-28T09:52:32;1.65;;;1.10;;
74196;SDS011;62555;52.678;4.900;2023-02-28T09:55:11;1.33;;;0.75;;
74196;SDS011;62555;52.678;4.900;2023-02-28T09:57:47;1.10;;;1.00;;
74196;SDS011;62555;52.678;4.900;2023-02-28T10:00:18;0.82;;;0.80;;
74196;SDS011;62555;52.678;4.900;2023-02-28T10:05:41;1.83;;;1.00;;
74196;SDS011;62555;52.678;4.900;2023-02-28T10:08:15;1.92;;;1.00;;
74196;SDS011;62555;52.678;4.900;2023-02-28T10:13:12;1.20;;;1.10;;
74196;SDS011;62555;52.678;4.900;2023-02-28T10:15:42;1.25;;;1.10;;
74196;SDS011;62555;52.678;4.900;2023-02-28T10:20:37;1.73;;;1.20;;
74196;SDS011;62555;52.678;4.900;2023-02-28T10:23:13;1.20;;;0.82;;
74196;SDS011;62555;52.678;4.900;2023-02-28T10:25:43;0.90;;;0.77;;
74196;SDS011;62555;52.678;4.900;2023-02-28T10:28:14;1.30;;;1.05;;
74196;SDS011;62555;52.678;4.900;2023-02-28T10:30:44;1.10;;;0.80;;
74196;SDS011;62555;52.678;4.900;2023-02-28T10:33:17;1.10;;;0.75;;
74196;SDS011;62555;52.678;4.900;2023-02-28T10:35:44;0.80;;;0.80;;
74196;SDS011;62555;52.678;4.900;2023-02-28T10:38:14;1.00;;;0.90;;
74196;SDS011;62555;52.678;4.900;2023-02-28T10:40:42;1.67;;;0.98;;
74196;SDS011;62555;52.678;4.900;2023-02-28T10:45:38;1.83;;;0.98;;
74196;SDS011;62555;52.678;4.900;2023-02-28T10:48:05;2.70;;;0.90;;
74196;SDS011;62555;52.678;4.900;2023-02-28T10:55:57;1.40;;;0.90;;
74196;SDS011;62555;52.678;4.900;2023-02-28T11:01:21;1.10;;;0.90;;
74196;SDS011;62555;52.678;4.900;2023-02-28T11:03:50;1.35;;;0.80;;
74196;SDS011;62555;52.678;4.900;2023-02-28T11:06:26;1.33;;;0.88;;
74196;SDS011;62555;52.678;4.900;2023-02-28T11:08:55;1.35;;;0.80;;
74196;SDS011;62555;52.678;4.900;2023-02-28T11:11:22;1.33;;;0.85;;
74196;SDS011;62555;52.678;4.900;2023-02-28T11:13:51;1.27;;;0.82;;
74196;SDS011;62555;52.678;4.900;2023-02-28T11:16:18;1.30;;;0.93;;
74196;SDS011;62555;52.678;4.900;2023-02-28T11:21:18;1.95;;;0.63;;
74196;SDS011;62555;52.678;4.900;2023-02-28T11:26:52;1.00;;;0.80;;
74196;SDS011;62555;52.678;4.900;2023-02-28T11:29:22;0.80;;;0.80;;
74196;SDS011;62555;52.678;4.900;2023-02-28T11:34:42;1.17;;;0.90;;
74196;SDS011;62555;52.678;4.900;2023-02-28T11:37:11;1.13;;;0.80;;
74196;SDS011;62555;52.678;4.900;2023-02-28T11:39:37;1.65;;;0.90;;
74196;SDS011;62555;52.678;4.900;2023-02-28T11:48:01;0.95;;;0.70;;
74196;SDS011;62555;52.678;4.900;2023-02-28T11:50:40;1.75;;;0.75;;
74196;SDS011;62555;52.678;4.900;2023-02-28T11:56:41;1.73;;;0.60;;
74196;SDS011;62555;52.678;4.900;2023-02-28T12:04:56;0.82;;;0.63;;
74196;SDS011;62555;52.678;4.900;2023-02-28T12:08:08;0.80;;;0.60;;
74196;SDS011;62555;52.678;4.900;2023-02-28T12:10:51;0.70;;;0.60;;
74196;SDS011;62555;52.678;4.900;2023-02-28T12:19:21;0.95;;;0.57;;
74196;SDS011;62555;52.678;4.900;2023-02-28T12:27:37;1.00;;;0.70;;
74196;SDS011;62555;52.678;4.900;2023-02-28T12:32:35;0.65;;;0.65;;
74196;SDS011;62555;52.678;4.900;2023-02-28T12:37:36;1.08;;;0.80;;
74196;SDS011;62555;52.678;4.900;2023-02-28T12:40:06;0.85;;;0.60;;
74196;SDS011;62555;52.678;4.900;2023-02-28T12:42:38;1.50;;;0.75;;
74196;SDS011;62555;52.678;4.900;2023-02-28T12:45:27;1.13;;;0.80;;
74196;SDS011;62555;52.678;4.900;2023-02-28T12:48:09;0.88;;;0.50;;
74196;SDS011;62555;52.678;4.900;2023-02-28T12:50:38;2.17;;;0.73;;
74196;SDS011;62555;52.678;4.900;2023-02-28T12:56:08;1.25;;;0.80;;
74196;SDS011;62555;52.678;4.900;2023-02-28T12:58:39;2.50;;;0.85;;
74196;SDS011;62555;52.678;4.900;2023-02-28T13:03:44;1.20;;;0.75;;
74196;SDS011;62555;52.678;4.900;2023-02-28T13:06:41;1.15;;;0.70;;
74196;SDS011;62555;52.678;4.900;2023-02-28T13:09:19;2.05;;;0.60;;
74196;SDS011;62555;52.678;4.900;2023-02-28T13:11:48;0.68;;;0.68;;
74196;SDS011;62555;52.678;4.900;2023-02-28T13:17:18;1.50;;;0.60;;
74196;SDS011;62555;52.678;4.900;2023-02-28T13:19:45;1.27;;;0.68;;
74196;SDS011;62555;52.678;4.900;2023-02-28T13:27:58;0.80;;;0.63;;
74196;SDS011;62555;52.678;4.900;2023-02-28T13:33:28;0.63;;;0.50;;
74196;SDS011;62555;52.678;4.900;2023-02-28T13:36:09;0.88;;;0.60;;
74196;SDS011;62555;52.678;4.900;2023-02-28T13:38:53;0.50;;;0.50;;
74196;SDS011;62555;52.678;4.900;2023-02-28T13:44:04;0.77;;;0.65;;
74196;SDS011;62555;52.678;4.900;2023-02-28T13:46:31;1.52;;;0.52;;
74196;SDS011;62555;52.678;4.900;2023-02-28T13:49:17;0.88;;;0.50;;
74196;SDS011;62555;52.678;4.900;2023-02-28T13:51:49;1.33;;;0.50;;
74196;SDS011;62555;52.678;4.900;2023-02-28T13:54:56;0.60;;;0.60;;
74196;SDS011;62555;52.678;4.900;2023-02-28T14:03:00;0.60;;;0.60;;
74196;SDS011;62555;52.678;4.900;2023-02-28T14:05:35;0.70;;;0.60;;
74196;SDS011;62555;52.678;4.900;2023-02-28T14:08:12;1.02;;;0.50;;
74196;SDS011;62555;52.678;4.900;2023-02-28T14:10:50;0.93;;;0.60;;
74196;SDS011;62555;52.678;4.900;2023-02-28T14:16:14;0.90;;;0.50;;
74196;SDS011;62555;52.678;4.900;2023-02-28T14:18:48;0.73;;;0.60;;
74196;SDS011;62555;52.678;4.900;2023-02-28T14:21:19;0.60;;;0.60;;
74196;SDS011;62555;52.678;4.900;2023-02-28T14:26:23;0.80;;;0.57;;
74196;SDS011;62555;52.678;4.900;2023-02-28T14:31:38;1.25;;;0.57;;
74196;SDS011;62555;52.678;4.900;2023-02-28T14:34:25;1.27;;;0.60;;
74196;SDS011;62555;52.678;4.900;2023-02-28T14:36:57;0.57;;;0.50;;
74196;SDS011;62555;52.678;4.900;2023-02-28T14:39:24;0.73;;;0.60;;
74196;SDS011;62555;52.678;4.900;2023-02-28T14:41:50;0.65;;;0.50;;
74196;SDS011;62555;52.678;4.900;2023-02-28T14:44:20;0.57;;;0.50;;
74196;SDS011;62555;52.678;4.900;2023-02-28T14:46:46;0.65;;;0.65;;
74196;SDS011;62555;52.678;4.900;2023-02-28T14:49:25;0.60;;;0.50;;
74196;SDS011;62555;52.678;4.900;2023-02-28T14:54:59;0.80;;;0.70;;
74196;SDS011;62555;52.678;4.900;2023-02-28T14:57:27;1.40;;;0.40;;
74196;SDS011;62555;52.678;4.900;2023-02-28T15:00:03;0.80;;;0.47;;
74196;SDS011;62555;52.678;4.900;2023-02-28T15:02:30;0.43;;;0.40;;
74196;SDS011;62555;52.678;4.900;2023-02-28T15:04:59;0.75;;;0.70;;
74196;SDS011;62555;52.678;4.900;2023-02-28T15:10:10;0.60;;;0.40;;
74196;SDS011;62555;52.678;4.900;2023-02-28T15:12:41;0.98;;;0.57;;
74196;SDS011;62555;52.678;4.900;2023-02-28T15:15:14;1.25;;;0.60;;
74196;SDS011;62555;52.678;4.900;2023-02-28T15:17:40;0.75;;;0.60;;
74196;SDS011;62555;52.678;4.900;2023-02-28T15:20:11;0.60;;;0.60;;
74196;SDS011;62555;52.678;4.900;2023-02-28T15:22:37;0.52;;;0.52;;
74196;SDS011;62555;52.678;4.900;2023-02-28T15:25:03;0.43;;;0.40;;
74196;SDS011;62555;52.678;4.900;2023-02-28T15:27:31;0.70;;;0.70;;
74196;SDS011;62555;52.678;4.900;2023-02-28T15:29:59;0.90;;;0.50;;
74196;SDS011;62555;52.678;4.900;2023-02-28T15:32:34;0.70;;;0.70;;
74196;SDS011;62555;52.678;4.900;2023-02-28T15:37:55;1.10;;;0.80;;
74196;SDS011;62555;52.678;4.900;2023-02-28T15:40:37;0.55;;;0.55;;
74196;SDS011;62555;52.678;4.900;2023-02-28T15:45:38;1.45;;;0.63;;
74196;SDS011;62555;52.678;4.900;2023-02-28T15:48:26;0.30;;;0.30;;
74196;SDS011;62555;52.678;4.900;2023-02-28T15:50:55;0.68;;;0.60;;
74196;SDS011;62555;52.678;4.900;2023-02-28T15:53:23;0.77;;;0.77;;
74196;SDS011;62555;52.678;4.900;2023-02-28T15:56:04;0.85;;;0.57;;
74196;SDS011;62555;52.678;4.900;2023-02-28T15:58:32;0.90;;;0.57;;
74196;SDS011;62555;52.678;4.900;2023-02-28T16:01:04;0.80;;;0.60;;
74196;SDS011;62555;52.678;4.900;2023-02-28T16:03:38;0.80;;;0.73;;
74196;SDS011;62555;52.678;4.900;2023-02-28T16:06:26;0.70;;;0.70;;
74196;SDS011;62555;52.678;4.900;2023-02-28T16:09:16;0.68;;;0.68;;
74196;SDS011;62555;52.678;4.900;2023-02-28T16:11:43;0.98;;;0.63;;
74196;SDS011;62555;52.678;4.900;2023-02-28T16:14:11;0.68;;;0.60;;
74196;SDS011;62555;52.678;4.900;2023-02-28T16:16:48;1.17;;;0.70;;
74196;SDS011;62555;52.678;4.900;2023-02-28T16:19:15;1.40;;;0.80;;
74196;SDS011;62555;52.678;4.900;2023-02-28T16:21:40;1.00;;;0.75;;
74196;SDS011;62555;52.678;4.900;2023-02-28T16:24:06;0.60;;;0.60;;
74196;SDS011;62555;52.678;4.900;2023-02-28T16:26:32;0.52;;;0.50;;
74196;SDS011;62555;52.678;4.900;2023-02-28T16:28:59;0.47;;;0.47;;
74196;SDS011;62555;52.678;4.900;2023-02-28T16:31:25;1.65;;;0.55;;
74196;SDS011;62555;52.678;4.900;2023-02-28T16:33:50;0.40;;;0.40;;
74196;SDS011;62555;52.678;4.900;2023-02-28T16:36:22;0.90;;;0.60;;
74196;SDS011;62555;52.678;4.900;2023-02-28T16:38:51;0.90;;;0.73;;
74196;SDS011;62555;52.678;4.900;2023-02-28T16:41:26;0.82;;;0.60;;
74196;SDS011;62555;52.678;4.900;2023-02-28T16:43:53;0.40;;;0.40;;
74196;SDS011;62555;52.678;4.900;2023-02-28T16:46:23;1.52;;;0.93;;
74196;SDS011;62555;52.678;4.900;2023-02-28T16:48:49;0.68;;;0.60;;
74196;SDS011;62555;52.678;4.900;2023-02-28T16:51:16;0.50;;;0.50;;
74196;SDS011;62555;52.678;4.900;2023-02-28T16:53:42;1.27;;;0.82;;
74196;SDS011;62555;52.678;4.900;2023-02-28T16:56:15;0.80;;;0.70;;
74196;SDS011;62555;52.678;4.900;2023-02-28T16:58:42;0.98;;;0.40;;
74196;SDS011;62555;52.678;4.900;2023-02-28T17:01:08;1.10;;;0.68;;
74196;SDS011;62555;52.678;4.900;2023-02-28T17:03:33;0.80;;;0.68;;
74196;SDS011;62555;52.678;4.900;2023-02-28T17:05:59;1.80;;;0.75;;
74196;SDS011;62555;52.678;4.900;2023-02-28T17:08:25;0.88;;;0.80;;
74196;SDS011;62555;52.678;4.900;2023-02-28T17:10:50;1.48;;;0.82;;
74196;SDS011;62555;52.678;4.900;2023-02-28T17:13:16;1.02;;;0.75;;
74196;SDS011;62555;52.678;4.900;2023-02-28T17:15:41;1.02;;;0.80;;